Polegate, United Kingdom
Current Conditions -  °F | °C
As of 9:50 AM on Thursday 23 Oct 2014 (Local Time) from EGKA Reporting Station
Drizzle Drizzle  
Wind Chill: 14°   Ceiling: 3200
Heat Index: 14°   Visibility: 6mi
Dew Point: 11°   Wind: 15mph
Humidity: 82%   Direction: 230°SW
Pressure: 30.15"   Gusts: NA
Location:  50.82°N, 0.24°E
Report Text: EGKA 230850Z 23013KT 9000 -DZ FEW018 SCT025 BKN032 14/11 Q1021
Loading
Personal Weather Stations






























Interactive Weather Map
Tropical Storm Tracking
New forecast layout! Learn more

10-Day Weather Forecast

Advertisements
Track Severe Weather on mobile